sensor_id;sensor_type;location;lat;lon;timestamp;pressure;altitude;pressure_sealevel;temperature;humidity
77062;BME280;65989;51.686;5.138;2023-05-10T00:00:23;100961.63;;;12.04;100.00
77062;BME280;65989;51.686;5.138;2023-05-10T00:02:49;100948.25;;;11.93;100.00
77062;BME280;65989;51.686;5.138;2023-05-10T00:05:14;100960.72;;;11.93;100.00
77062;BME280;65989;51.686;5.138;2023-05-10T00:07:40;100955.41;;;11.88;100.00
77062;BME280;65989;51.686;5.138;2023-05-10T00:10:06;100958.03;;;11.83;100.00
77062;BME280;65989;51.686;5.138;2023-05-10T00:12:31;100952.69;;;11.77;100.00
77062;BME280;65989;51.686;5.138;2023-05-10T00:14:57;100957.97;;;11.72;100.00
77062;BME280;65989;51.686;5.138;2023-05-10T00:17:22;100950.78;;;11.68;100.00
77062;BME280;65989;51.686;5.138;2023-05-10T00:19:47;100961.66;;;11.66;100.00
77062;BME280;65989;51.686;5.138;2023-05-10T00:22:13;100955.81;;;11.59;100.00
77062;BME280;65989;51.686;5.138;2023-05-10T00:24:38;100963.50;;;11.60;100.00
77062;BME280;65989;51.686;5.138;2023-05-10T00:27:04;100961.13;;;11.64;100.00
77062;BME280;65989;51.686;5.138;2023-05-10T00:29:29;100963.00;;;11.69;100.00
77062;BME280;65989;51.686;5.138;2023-05-10T00:31:54;100963.28;;;11.72;100.00
77062;BME280;65989;51.686;5.138;2023-05-10T00:34:20;100963.28;;;11.72;100.00
77062;BME280;65989;51.686;5.138;2023-05-10T00:36:45;100963.34;;;11.83;100.00
77062;BME280;65989;51.686;5.138;2023-05-10T00:39:11;100966.25;;;11.81;100.00
77062;BME280;65989;51.686;5.138;2023-05-10T00:41:37;100956.69;;;11.80;100.00
77062;BME280;65989;51.686;5.138;2023-05-10T00:44:02;100970.28;;;11.94;100.00
77062;BME280;65989;51.686;5.138;2023-05-10T00:46:30;100964.72;;;11.90;100.00
77062;BME280;65989;51.686;5.138;2023-05-10T00:48:56;100955.16;;;11.94;100.00
77062;BME280;65989;51.686;5.138;2023-05-10T00:51:21;100957.00;;;11.94;100.00
77062;BME280;65989;51.686;5.138;2023-05-10T00:53:48;100957.63;;;12.06;100.00
77062;BME280;65989;51.686;5.138;2023-05-10T00:56:15;100956.50;;;11.92;100.00
77062;BME280;65989;51.686;5.138;2023-05-10T00:58:41;100953.66;;;12.14;100.00
77062;BME280;65989;51.686;5.138;2023-05-10T01:01:07;100943.41;;;12.54;100.00
77062;BME280;65989;51.686;5.138;2023-05-10T01:03:33;100942.06;;;12.36;100.00
77062;BME280;65989;51.686;5.138;2023-05-10T01:05:59;100938.91;;;11.80;100.00
77062;BME280;65989;51.686;5.138;2023-05-10T01:08:25;100941.97;;;12.10;100.00
77062;BME280;65989;51.686;5.138;2023-05-10T01:10:51;100944.63;;;12.10;100.00
77062;BME280;65989;51.686;5.138;2023-05-10T01:13:27;100939.72;;;11.86;100.00
77062;BME280;65989;51.686;5.138;2023-05-10T01:15:56;100937.88;;;11.87;100.00
77062;BME280;65989;51.686;5.138;2023-05-10T01:18:21;100940.19;;;11.68;100.00
77062;BME280;65989;51.686;5.138;2023-05-10T01:20:48;100939.97;;;11.79;100.00
77062;BME280;65989;51.686;5.138;2023-05-10T01:34:23;100944.81;;;11.40;100.00
77062;BME280;65989;51.686;5.138;2023-05-10T01:36:58;100958.53;;;11.31;100.00
77062;BME280;65989;51.686;5.138;2023-05-10T01:39:30;100948.81;;;11.47;100.00
77062;BME280;65989;51.686;5.138;2023-05-10T01:42:08;100953.81;;;11.39;100.00
77062;BME280;65989;51.686;5.138;2023-05-10T01:44:39;100962.94;;;12.06;100.00
77062;BME280;65989;51.686;5.138;2023-05-10T01:49:55;100961.59;;;11.50;100.00
77062;BME280;65989;51.686;5.138;2023-05-10T01:52:31;100965.94;;;11.72;100.00
77062;BME280;65989;51.686;5.138;2023-05-10T01:55:04;100961.66;;;11.66;100.00
77062;BME280;65989;51.686;5.138;2023-05-10T01:57:35;100958.94;;;11.50;100.00
77062;BME280;65989;51.686;5.138;2023-05-10T02:00:02;100969.50;;;11.45;100.00
77062;BME280;65989;51.686;5.138;2023-05-10T02:02:39;100952.22;;;11.43;100.00
77062;BME280;65989;51.686;5.138;2023-05-10T02:05:06;100958.63;;;11.47;100.00
77062;BME280;65989;51.686;5.138;2023-05-10T02:07:34;100965.88;;;11.19;100.00
77062;BME280;65989;51.686;5.138;2023-05-10T02:10:02;100972.34;;;11.01;100.00
77062;BME280;65989;51.686;5.138;2023-05-10T02:12:28;100965.38;;;11.22;100.00
77062;BME280;65989;51.686;5.138;2023-05-10T02:14:54;100970.38;;;11.18;100.00
77062;BME280;65989;51.686;5.138;2023-05-10T02:17:21;100965.50;;;11.05;100.00
77062;BME280;65989;51.686;5.138;2023-05-10T02:19:47;100972.13;;;11.40;100.00
77062;BME280;65989;51.686;5.138;2023-05-10T02:22:13;100966.03;;;11.40;100.00
77062;BME280;65989;51.686;5.138;2023-05-10T02:24:41;100968.09;;;11.32;100.00
77062;BME280;65989;51.686;5.138;2023-05-10T02:27:07;100964.84;;;11.68;100.00
77062;BME280;65989;51.686;5.138;2023-05-10T02:29:36;100966.97;;;11.66;100.00
77062;BME280;65989;51.686;5.138;2023-05-10T02:32:02;100964.44;;;11.87;100.00
77062;BME280;65989;51.686;5.138;2023-05-10T02:34:28;100976.84;;;11.76;100.00
77062;BME280;65989;51.686;5.138;2023-05-10T02:36:55;100972.47;;;11.54;100.00
77062;BME280;65989;51.686;5.138;2023-05-10T02:39:22;100980.31;;;11.76;100.00
77062;BME280;65989;51.686;5.138;2023-05-10T02:41:49;100974.72;;;11.78;100.00
77062;BME280;65989;51.686;5.138;2023-05-10T02:44:17;100976.84;;;11.71;100.00
77062;BME280;65989;51.686;5.138;2023-05-10T02:46:44;100981.69;;;11.89;100.00
77062;BME280;65989;51.686;5.138;2023-05-10T02:49:09;100980.72;;;12.01;100.00
77062;BME280;65989;51.686;5.138;2023-05-10T02:51:38;100979.97;;;12.10;100.00
77062;BME280;65989;51.686;5.138;2023-05-10T02:54:18;100983.16;;;12.13;100.00
77062;BME280;65989;51.686;5.138;2023-05-10T02:56:48;100985.31;;;12.26;100.00
77062;BME280;65989;51.686;5.138;2023-05-10T02:59:15;100988.50;;;12.18;100.00
77062;BME280;65989;51.686;5.138;2023-05-10T03:01:41;100986.66;;;12.23;100.00
77062;BME280;65989;51.686;5.138;2023-05-10T03:04:06;100984.97;;;12.02;100.00
77062;BME280;65989;51.686;5.138;2023-05-10T03:06:32;100994.94;;;12.37;100.00
77062;BME280;65989;51.686;5.138;2023-05-10T03:08:58;100993.56;;;12.24;100.00
77062;BME280;65989;51.686;5.138;2023-05-10T03:17:19;100987.84;;;12.69;100.00
77062;BME280;65989;51.686;5.138;2023-05-10T03:20:02;100993.28;;;12.16;100.00
77062;BME280;65989;51.686;5.138;2023-05-10T03:22:37;100991.28;;;12.69;100.00
77062;BME280;65989;51.686;5.138;2023-05-10T03:25:06;100999.56;;;12.89;100.00
77062;BME280;65989;51.686;5.138;2023-05-10T03:27:32;100993.06;;;12.33;100.00
77062;BME280;65989;51.686;5.138;2023-05-10T03:29:57;100996.03;;;12.52;100.00
77062;BME280;65989;51.686;5.138;2023-05-10T03:32:23;101002.97;;;12.53;100.00
77062;BME280;65989;51.686;5.138;2023-05-10T03:34:49;101000.91;;;12.86;100.00
77062;BME280;65989;51.686;5.138;2023-05-10T03:37:14;101006.13;;;12.45;100.00
77062;BME280;65989;51.686;5.138;2023-05-10T03:39:40;101002.06;;;12.27;100.00
77062;BME280;65989;51.686;5.138;2023-05-10T03:42:05;101006.16;;;12.55;100.00
77062;BME280;65989;51.686;5.138;2023-05-10T03:44:31;101007.66;;;12.30;100.00
77062;BME280;65989;51.686;5.138;2023-05-10T03:46:58;101007.19;;;12.59;100.00
77062;BME280;65989;51.686;5.138;2023-05-10T03:49:23;101007.16;;;12.38;100.00
77062;BME280;65989;51.686;5.138;2023-05-10T03:51:49;101003.78;;;12.79;100.00
77062;BME280;65989;51.686;5.138;2023-05-10T03:54:14;101011.00;;;12.84;100.00
77062;BME280;65989;51.686;5.138;2023-05-10T03:56:40;101005.94;;;13.08;100.00
77062;BME280;65989;51.686;5.138;2023-05-10T03:59:05;101006.72;;;12.98;100.00
77062;BME280;65989;51.686;5.138;2023-05-10T04:01:33;101011.72;;;12.59;100.00
77062;BME280;65989;51.686;5.138;2023-05-10T04:03:59;101012.53;;;12.64;100.00
77062;BME280;65989;51.686;5.138;2023-05-10T04:06:24;101018.38;;;12.61;100.00
77062;BME280;65989;51.686;5.138;2023-05-10T04:08:49;101010.81;;;12.27;100.00
77062;BME280;65989;51.686;5.138;2023-05-10T04:11:15;101015.50;;;12.89;100.00
77062;BME280;65989;51.686;5.138;2023-05-10T04:13:40;101020.41;;;12.28;100.00
77062;BME280;65989;51.686;5.138;2023-05-10T04:16:06;101021.78;;;12.36;100.00
77062;BME280;65989;51.686;5.138;2023-05-10T04:18:31;101024.13;;;12.32;100.00
77062;BME280;65989;51.686;5.138;2023-05-10T04:20:57;101014.72;;;12.88;100.00
77062;BME280;65989;51.686;5.138;2023-05-10T04:23:22;101021.63;;;12.94;100.00
77062;BME280;65989;51.686;5.138;2023-05-10T04:25:48;101020.84;;;12.99;100.00
77062;BME280;65989;51.686;5.138;2023-05-10T04:28:13;101019.53;;;13.07;100.00
77062;BME280;65989;51.686;5.138;2023-05-10T04:30:39;101019.78;;;12.90;100.00
77062;BME280;65989;51.686;5.138;2023-05-10T04:33:05;101021.63;;;12.79;100.00
77062;BME280;65989;51.686;5.138;2023-05-10T04:35:31;101032.53;;;12.93;100.00
77062;BME280;65989;51.686;5.138;2023-05-10T04:37:56;101021.63;;;12.79;100.00
77062;BME280;65989;51.686;5.138;2023-05-10T04:40:21;101020.31;;;13.33;100.00
77062;BME280;65989;51.686;5.138;2023-05-10T04:42:47;101032.25;;;12.79;100.00
77062;BME280;65989;51.686;5.138;2023-05-10T04:45:12;101034.63;;;12.80;99.88
77062;BME280;65989;51.686;5.138;2023-05-10T04:47:39;101025.91;;;13.21;99.13
77062;BME280;65989;51.686;5.138;2023-05-10T04:50:05;101031.97;;;12.65;99.27
77062;BME280;65989;51.686;5.138;2023-05-10T04:52:31;101034.19;;;12.20;99.86
77062;BME280;65989;51.686;5.138;2023-05-10T04:54:57;101034.38;;;12.03;100.00
77062;BME280;65989;51.686;5.138;2023-05-10T04:57:22;101035.50;;;12.17;100.00
77062;BME280;65989;51.686;5.138;2023-05-10T04:59:47;101030.44;;;13.47;99.98
77062;BME280;65989;51.686;5.138;2023-05-10T05:02:13;101031.47;;;13.09;99.60
77062;BME280;65989;51.686;5.138;2023-05-10T05:04:38;101031.22;;;13.63;99.19
77062;BME280;65989;51.686;5.138;2023-05-10T05:07:03;101034.41;;;13.34;98.91
77062;BME280;65989;51.686;5.138;2023-05-10T05:09:29;101034.66;;;13.11;98.61
77062;BME280;65989;51.686;5.138;2023-05-10T05:11:59;101038.97;;;13.33;97.90
77062;BME280;65989;51.686;5.138;2023-05-10T05:14:39;101042.16;;;12.20;98.69
77062;BME280;65989;51.686;5.138;2023-05-10T05:17:04;101041.69;;;12.38;99.60
77062;BME280;65989;51.686;5.138;2023-05-10T05:19:31;101047.16;;;12.11;99.81
77062;BME280;65989;51.686;5.138;2023-05-10T05:21:56;101051.41;;;12.12;100.00
77062;BME280;65989;51.686;5.138;2023-05-10T05:24:21;101046.66;;;13.09;100.00
77062;BME280;65989;51.686;5.138;2023-05-10T05:26:47;101053.13;;;12.44;100.00
77062;BME280;65989;51.686;5.138;2023-05-10T05:29:12;101053.63;;;12.31;100.00
77062;BME280;65989;51.686;5.138;2023-05-10T05:31:37;101045.06;;;13.18;100.00
77062;BME280;65989;51.686;5.138;2023-05-10T05:34:03;101053.06;;;13.18;100.00
77062;BME280;65989;51.686;5.138;2023-05-10T05:36:28;101045.34;;;13.22;99.77
77062;BME280;65989;51.686;5.138;2023-05-10T05:38:54;101046.41;;;13.47;99.60
77062;BME280;65989;51.686;5.138;2023-05-10T05:41:20;101054.38;;;13.26;99.27
77062;BME280;65989;51.686;5.138;2023-05-10T05:43:46;101060.78;;;13.30;98.95
77062;BME280;65989;51.686;5.138;2023-05-10T05:46:11;101065.59;;;13.54;99.08
77062;BME280;65989;51.686;5.138;2023-05-10T05:48:37;101067.47;;;13.43;98.32
77062;BME280;65989;51.686;5.138;2023-05-10T05:51:02;101059.69;;;13.15;98.14
77062;BME280;65989;51.686;5.138;2023-05-10T05:53:28;101062.63;;;13.29;98.43
77062;BME280;65989;51.686;5.138;2023-05-10T05:55:55;101072.25;;;13.51;98.45
77062;BME280;65989;51.686;5.138;2023-05-10T05:58:21;101067.19;;;13.60;98.24
77062;BME280;65989;51.686;5.138;2023-05-10T06:00:47;101071.41;;;13.87;97.83
77062;BME280;65989;51.686;5.138;2023-05-10T06:03:13;101082.88;;;13.82;97.51
77062;BME280;65989;51.686;5.138;2023-05-10T06:05:38;101059.47;;;13.48;97.71
77062;BME280;65989;51.686;5.138;2023-05-10T06:08:04;101074.63;;;13.48;97.57
77062;BME280;65989;51.686;5.138;2023-05-10T06:10:29;101081.28;;;13.86;97.48
77062;BME280;65989;51.686;5.138;2023-05-10T06:12:55;101081.28;;;13.86;97.42
77062;BME280;65989;51.686;5.138;2023-05-10T06:15:21;101083.09;;;14.01;96.89
77062;BME280;65989;51.686;5.138;2023-05-10T06:17:46;101087.13;;;13.83;96.59
77062;BME280;65989;51.686;5.138;2023-05-10T06:20:14;101078.03;;;14.00;96.42
77062;BME280;65989;51.686;5.138;2023-05-10T06:22:40;101092.72;;;13.92;96.28
77062;BME280;65989;51.686;5.138;2023-05-10T06:25:06;101091.94;;;13.61;96.29
77062;BME280;65989;51.686;5.138;2023-05-10T06:27:31;101086.59;;;13.86;96.04
77062;BME280;65989;51.686;5.138;2023-05-10T06:29:56;101095.94;;;13.68;96.08
77062;BME280;65989;51.686;5.138;2023-05-10T06:32:22;101098.06;;;13.56;95.83
77062;BME280;65989;51.686;5.138;2023-05-10T06:34:47;101103.66;;;13.44;95.65
77062;BME280;65989;51.686;5.138;2023-05-10T06:37:13;101100.19;;;13.43;95.93
77062;BME280;65989;51.686;5.138;2023-05-10T06:39:38;101108.69;;;13.77;95.86
77062;BME280;65989;51.686;5.138;2023-05-10T06:42:03;101114.84;;;13.41;95.72
77062;BME280;65989;51.686;5.138;2023-05-10T06:44:29;101106.06;;;13.56;95.87
77062;BME280;65989;51.686;5.138;2023-05-10T06:46:55;101107.63;;;13.78;95.76
77062;BME280;65989;51.686;5.138;2023-05-10T06:49:21;101114.19;;;12.97;96.84
77062;BME280;65989;51.686;5.138;2023-05-10T06:51:46;101112.06;;;12.89;97.18
77062;BME280;65989;51.686;5.138;2023-05-10T06:54:12;101118.44;;;12.88;97.84
77062;BME280;65989;51.686;5.138;2023-05-10T06:56:37;101122.53;;;13.32;97.94
77062;BME280;65989;51.686;5.138;2023-05-10T06:59:02;101116.00;;;12.81;98.30
77062;BME280;65989;51.686;5.138;2023-05-10T07:01:28;101120.13;;;13.98;97.35
77062;BME280;65989;51.686;5.138;2023-05-10T07:03:53;101123.88;;;13.66;97.20
77062;BME280;65989;51.686;5.138;2023-05-10T07:06:19;101130.56;;;13.73;96.64
77062;BME280;65989;51.686;5.138;2023-05-10T07:08:44;101132.66;;;13.51;96.18
77062;BME280;65989;51.686;5.138;2023-05-10T07:11:09;101129.47;;;13.54;96.26
77062;BME280;65989;51.686;5.138;2023-05-10T07:13:38;101130.00;;;13.92;96.15
77062;BME280;65989;51.686;5.138;2023-05-10T07:16:06;101137.75;;;13.78;95.82
77062;BME280;65989;51.686;5.138;2023-05-10T07:18:33;101133.97;;;14.15;95.62
77062;BME280;65989;51.686;5.138;2023-05-10T07:20:58;101142.22;;;14.14;95.19
77062;BME280;65989;51.686;5.138;2023-05-10T07:23:24;101138.78;;;14.13;94.22
77062;BME280;65989;51.686;5.138;2023-05-10T07:25:50;101131.31;;;14.15;94.20
77062;BME280;65989;51.686;5.138;2023-05-10T07:28:17;101142.75;;;14.11;94.29
77062;BME280;65989;51.686;5.138;2023-05-10T07:30:43;101143.00;;;14.25;94.31
77062;BME280;65989;51.686;5.138;2023-05-10T07:33:09;101142.94;;;15.11;94.25
77062;BME280;65989;51.686;5.138;2023-05-10T07:35:35;101137.38;;;15.02;93.90
77062;BME280;65989;51.686;5.138;2023-05-10T07:38:01;101141.28;;;15.20;93.19
77062;BME280;65989;51.686;5.138;2023-05-10T07:40:26;101138.22;;;14.98;93.19
77062;BME280;65989;51.686;5.138;2023-05-10T07:42:52;101145.78;;;14.80;92.93
77062;BME280;65989;51.686;5.138;2023-05-10T07:45:17;101148.31;;;15.51;92.36
77062;BME280;65989;51.686;5.138;2023-05-10T07:47:43;101146.63;;;15.20;92.49
77062;BME280;65989;51.686;5.138;2023-05-10T07:50:08;101145.06;;;15.54;92.44
77062;BME280;65989;51.686;5.138;2023-05-10T07:52:34;101145.16;;;15.38;91.59
77062;BME280;65989;51.686;5.138;2023-05-10T07:54:59;101148.16;;;15.32;91.10
77062;BME280;65989;51.686;5.138;2023-05-10T07:57:25;101155.38;;;15.26;90.86
77062;BME280;65989;51.686;5.138;2023-05-10T07:59:53;101154.66;;;15.15;90.66
77062;BME280;65989;51.686;5.138;2023-05-10T08:02:18;101155.69;;;15.25;91.05
77062;BME280;65989;51.686;5.138;2023-05-10T08:04:44;101159.53;;;15.48;91.03
77062;BME280;65989;51.686;5.138;2023-05-10T08:07:10;101154.56;;;15.31;90.77
77062;BME280;65989;51.686;5.138;2023-05-10T08:09:35;101160.34;;;15.43;90.64
77062;BME280;65989;51.686;5.138;2023-05-10T08:12:01;101164.84;;;15.53;89.97
77062;BME280;65989;51.686;5.138;2023-05-10T08:14:28;101173.09;;;15.91;89.27
77062;BME280;65989;51.686;5.138;2023-05-10T08:16:54;101168.16;;;16.33;88.79
77062;BME280;65989;51.686;5.138;2023-05-10T08:19:19;101169.25;;;16.03;87.66
77062;BME280;65989;51.686;5.138;2023-05-10T08:21:46;101172.66;;;16.08;87.75
77062;BME280;65989;51.686;5.138;2023-05-10T08:24:11;101181.25;;;16.35;86.63
77062;BME280;65989;51.686;5.138;2023-05-10T08:26:37;101175.81;;;16.16;86.56
77062;BME280;65989;51.686;5.138;2023-05-10T08:29:02;101174.97;;;16.69;85.74
77062;BME280;65989;51.686;5.138;2023-05-10T08:31:28;101181.59;;;16.52;85.34
77062;BME280;65989;51.686;5.138;2023-05-10T08:33:53;101184.75;;;16.79;84.62
77062;BME280;65989;51.686;5.138;2023-05-10T08:36:18;101173.09;;;17.51;84.26
77062;BME280;65989;51.686;5.138;2023-05-10T08:38:53;101174.84;;;17.75;82.64
77062;BME280;65989;51.686;5.138;2023-05-10T08:41:23;101185.72;;;17.84;81.34
77062;BME280;65989;51.686;5.138;2023-05-10T08:43:54;101192.31;;;17.72;80.96
77062;BME280;65989;51.686;5.138;2023-05-10T08:46:21;101185.47;;;17.80;80.79
77062;BME280;65989;51.686;5.138;2023-05-10T08:48:48;101183.72;;;17.89;80.53
77062;BME280;65989;51.686;5.138;2023-05-10T08:51:17;101183.66;;;16.36;81.75
77062;BME280;65989;51.686;5.138;2023-05-10T08:53:43;101197.22;;;16.16;83.90
77062;BME280;65989;51.686;5.138;2023-05-10T08:56:09;101196.94;;;16.17;84.75
77062;BME280;65989;51.686;5.138;2023-05-10T08:58:34;101196.97;;;16.12;84.66
77062;BME280;65989;51.686;5.138;2023-05-10T09:01:00;101196.22;;;15.72;85.13
77062;BME280;65989;51.686;5.138;2023-05-10T09:03:26;101205.91;;;15.57;85.74
77062;BME280;65989;51.686;5.138;2023-05-10T09:05:51;101202.44;;;15.62;86.05
77062;BME280;65989;51.686;5.138;2023-05-10T09:08:17;101197.44;;;15.50;86.27
77062;BME280;65989;51.686;5.138;2023-05-10T09:10:43;101204.72;;;15.79;86.47
77062;BME280;65989;51.686;5.138;2023-05-10T09:13:10;101214.84;;;15.87;86.33
77062;BME280;65989;51.686;5.138;2023-05-10T09:15:36;101212.91;;;15.93;86.02
77062;BME280;65989;51.686;5.138;2023-05-10T09:18:02;101207.97;;;17.08;84.11
77062;BME280;65989;51.686;5.138;2023-05-10T09:20:27;101210.72;;;16.78;83.35
77062;BME280;65989;51.686;5.138;2023-05-10T09:22:53;101209.81;;;16.88;82.80
77062;BME280;65989;51.686;5.138;2023-05-10T09:25:19;101214.25;;;16.98;81.83
77062;BME280;65989;51.686;5.138;2023-05-10T09:27:46;101216.09;;;16.78;81.17
77062;BME280;65989;51.686;5.138;2023-05-10T09:30:17;101214.84;;;16.70;80.97
77062;BME280;65989;51.686;5.138;2023-05-10T09:32:47;101224.84;;;16.84;81.12
77062;BME280;65989;51.686;5.138;2023-05-10T09:35:15;101224.47;;;16.71;81.31
77062;BME280;65989;51.686;5.138;2023-05-10T09:37:42;101232.16;;;17.02;80.71
77062;BME280;65989;51.686;5.138;2023-05-10T09:40:12;101229.06;;;17.14;79.79
77062;BME280;65989;51.686;5.138;2023-05-10T09:42:38;101227.31;;;17.24;79.44
77062;BME280;65989;51.686;5.138;2023-05-10T09:45:04;101230.94;;;17.71;78.60
77062;BME280;65989;51.686;5.138;2023-05-10T09:47:34;101235.25;;;17.86;77.81
77062;BME280;65989;51.686;5.138;2023-05-10T09:50:00;101243.38;;;17.81;77.50
77062;BME280;65989;51.686;5.138;2023-05-10T09:52:48;101234.69;;;18.23;76.84
77062;BME280;65989;51.686;5.138;2023-05-10T09:55:15;101239.09;;;17.99;76.20
77062;BME280;65989;51.686;5.138;2023-05-10T09:57:41;101238.94;;;17.90;74.94
77062;BME280;65989;51.686;5.138;2023-05-10T10:00:07;101238.59;;;17.59;74.91
77062;BME280;65989;51.686;5.138;2023-05-10T10:02:32;101248.72;;;16.80;76.28
77062;BME280;65989;51.686;5.138;2023-05-10T10:05:00;101249.22;;;16.58;76.85
77062;BME280;65989;51.686;5.138;2023-05-10T10:07:27;101254.31;;;16.30;77.25
77062;BME280;65989;51.686;5.138;2023-05-10T10:09:53;101242.69;;;16.10;77.83
77062;BME280;65989;51.686;5.138;2023-05-10T10:12:19;101251.59;;;16.35;78.31
77062;BME280;65989;51.686;5.138;2023-05-10T10:14:46;101239.13;;;15.91;79.05
77062;BME280;65989;51.686;5.138;2023-05-10T10:17:12;101248.50;;;15.88;79.24
77062;BME280;65989;51.686;5.138;2023-05-10T10:19:38;101257.31;;;15.89;79.85
77062;BME280;65989;51.686;5.138;2023-05-10T10:22:05;101260.78;;;15.89;79.64
77062;BME280;65989;51.686;5.138;2023-05-10T10:24:31;101258.88;;;15.95;79.81
77062;BME280;65989;51.686;5.138;2023-05-10T10:27:02;101254.34;;;15.90;79.39
77062;BME280;65989;51.686;5.138;2023-05-10T10:29:37;101261.16;;;16.12;80.22
77062;BME280;65989;51.686;5.138;2023-05-10T10:32:12;101265.69;;;16.41;80.07
77062;BME280;65989;51.686;5.138;2023-05-10T10:34:45;101262.41;;;16.73;79.83
77062;BME280;65989;51.686;5.138;2023-05-10T10:37:10;101257.84;;;17.04;79.49
77062;BME280;65989;51.686;5.138;2023-05-10T10:39:36;101259.47;;;17.43;79.08
77062;BME280;65989;51.686;5.138;2023-05-10T10:42:02;101246.47;;;17.88;78.10
77062;BME280;65989;51.686;5.138;2023-05-10T10:47:00;101243.00;;;18.96;75.01
77062;BME280;65989;51.686;5.138;2023-05-10T10:49:26;101243.84;;;19.56;74.31
77062;BME280;65989;51.686;5.138;2023-05-10T10:52:42;101243.44;;;20.08;72.71
77062;BME280;65989;51.686;5.138;2023-05-10T11:02:56;101244.09;;;20.46;67.77
77062;BME280;65989;51.686;5.138;2023-05-10T11:05:42;101238.16;;;20.75;67.74
77062;BME280;65989;51.686;5.138;2023-05-10T11:08:28;101248.03;;;20.80;66.94
77062;BME280;65989;51.686;5.138;2023-05-10T11:11:01;101246.69;;;20.59;66.43
77062;BME280;65989;51.686;5.138;2023-05-10T11:16:29;101253.38;;;20.08;66.81
77062;BME280;65989;51.686;5.138;2023-05-10T11:19:11;101247.72;;;20.09;67.16
77062;BME280;65989;51.686;5.138;2023-05-10T11:24:20;101245.94;;;20.36;67.12
77062;BME280;65989;51.686;5.138;2023-05-10T11:26:46;101245.88;;;20.59;66.00
77062;BME280;65989;51.686;5.138;2023-05-10T11:29:15;101250.91;;;20.92;65.15
77062;BME280;65989;51.686;5.138;2023-05-10T11:31:44;101261.41;;;21.02;64.46
77062;BME280;65989;51.686;5.138;2023-05-10T11:34:11;101257.25;;;20.96;62.49
77062;BME280;65989;51.686;5.138;2023-05-10T11:36:39;101250.28;;;20.95;62.23
77062;BME280;65989;51.686;5.138;2023-05-10T11:39:05;101251.38;;;20.13;62.12
77062;BME280;65989;51.686;5.138;2023-05-10T11:41:31;101254.19;;;19.85;63.36
77062;BME280;65989;51.686;5.138;2023-05-10T11:44:02;101252.13;;;19.46;63.87
77062;BME280;65989;51.686;5.138;2023-05-10T11:46:28;101261.56;;;19.20;64.92
77062;BME280;65989;51.686;5.138;2023-05-10T11:49:00;101254.94;;;19.40;66.69
77062;BME280;65989;51.686;5.138;2023-05-10T11:51:27;101264.88;;;19.03;66.70
77062;BME280;65989;51.686;5.138;2023-05-10T11:53:54;101264.56;;;18.77;67.17
77062;BME280;65989;51.686;5.138;2023-05-10T11:56:20;101274.06;;;18.55;67.94
77062;BME280;65989;51.686;5.138;2023-05-10T11:58:52;101264.50;;;18.21;68.81
77062;BME280;65989;51.686;5.138;2023-05-10T12:01:18;101273.72;;;17.96;69.40
77062;BME280;65989;51.686;5.138;2023-05-10T12:03:44;101280.19;;;17.75;70.25
77062;BME280;65989;51.686;5.138;2023-05-10T12:06:09;101287.28;;;17.66;70.10
77062;BME280;65989;51.686;5.138;2023-05-10T12:08:35;101279.38;;;17.56;70.74
77062;BME280;65989;51.686;5.138;2023-05-10T12:11:06;101281.34;;;17.50;71.56
77062;BME280;65989;51.686;5.138;2023-05-10T12:13:32;101281.91;;;17.47;71.82
77062;BME280;65989;51.686;5.138;2023-05-10T12:15:58;101287.41;;;17.56;71.71
77062;BME280;65989;51.686;5.138;2023-05-10T12:18:24;101290.97;;;17.51;72.08
77062;BME280;65989;51.686;5.138;2023-05-10T12:20:52;101289.81;;;17.38;72.73
77062;BME280;65989;51.686;5.138;2023-05-10T12:23:19;101300.00;;;17.36;72.19
77062;BME280;65989;51.686;5.138;2023-05-10T12:25:45;101299.81;;;17.52;72.52
77062;BME280;65989;51.686;5.138;2023-05-10T12:28:11;101293.19;;;17.25;72.41
77062;BME280;65989;51.686;5.138;2023-05-10T12:30:38;101296.31;;;17.32;72.61
77062;BME280;65989;51.686;5.138;2023-05-10T12:33:09;101296.16;;;17.23;72.33
77062;BME280;65989;51.686;5.138;2023-05-10T12:35:47;101297.25;;;17.22;72.80
77062;BME280;65989;51.686;5.138;2023-05-10T12:38:38;101300.69;;;17.23;73.09
77062;BME280;65989;51.686;5.138;2023-05-10T12:41:06;101299.69;;;17.19;73.01
77062;BME280;65989;51.686;5.138;2023-05-10T12:43:33;101305.16;;;17.08;72.45
77062;BME280;65989;51.686;5.138;2023-05-10T12:45:58;101303.56;;;17.07;72.77
77062;BME280;65989;51.686;5.138;2023-05-10T12:48:29;101301.13;;;17.11;73.11
77062;BME280;65989;51.686;5.138;2023-05-10T12:50:56;101300.38;;;17.05;72.46
77062;BME280;65989;51.686;5.138;2023-05-10T12:53:21;101307.91;;;17.03;73.43
77062;BME280;65989;51.686;5.138;2023-05-10T12:55:46;101308.47;;;17.00;72.89
77062;BME280;65989;51.686;5.138;2023-05-10T12:58:12;101307.69;;;16.99;73.32
77062;BME280;65989;51.686;5.138;2023-05-10T13:00:37;101315.75;;;16.94;73.28
77062;BME280;65989;51.686;5.138;2023-05-10T13:03:04;101321.44;;;16.87;72.90
77062;BME280;65989;51.686;5.138;2023-05-10T13:05:34;101322.75;;;16.90;73.24
77062;BME280;65989;51.686;5.138;2023-05-10T13:08:00;101320.94;;;16.85;73.34
77062;BME280;65989;51.686;5.138;2023-05-10T13:10:26;101325.28;;;16.76;73.26
77062;BME280;65989;51.686;5.138;2023-05-10T13:12:51;101322.09;;;16.74;73.13
77062;BME280;65989;51.686;5.138;2023-05-10T13:15:17;101325.34;;;16.71;72.67
77062;BME280;65989;51.686;5.138;2023-05-10T13:17:42;101317.66;;;16.64;73.32
77062;BME280;65989;51.686;5.138;2023-05-10T13:20:08;101324.91;;;16.58;73.39